Thorne, Nevada
Current Conditions -  °F | °C
As of 9:56 AM on Friday 24 Oct 2014 (Local Time) from KNFL Reporting Station
Few Clouds Few Clouds  
Wind Chill: 54°   Ceiling: Unl
Heat Index: 54°   Visibility: 10mi
Dew Point: 33°   Wind: 0mph
Humidity: 45%   Direction: NA
Pressure: 30.1"   Gusts: NA
Location:  38.6331°N, 118.656°W
Report Text: KNFL 241656Z 00000KT 10SM FEW005 FEW220 12/01 A3010 RMK AO2 SLP161 FU FEW005 FU VC NW T01220006
Loading
Personal Weather Stations






























Interactive Weather Map
Tropical Storm Tracking
New forecast layout! Learn more

10-Day Weather Forecast

Advertisements
Track Severe Weather on mobile